N246CX KBFL-PHKO
Flight info
| Callsign | N246CX |
|---|---|
| Flight time | N/A |
| Altitude | 34000 |
| Route | STIGR V183 RZS SNAXX DINTY R576 DENNS UPP VECKI9 |
| Aircraft | CL60/M-VGDW/C |
Departure
| Time | N/A |
|---|---|
| Airport | Meadows Field (KBFL) |
Arrival
| Time | 2026-05-06 22:07 |
|---|---|
| Airport | Ellison Onizuka Kona International Airport at Keāhole (PHKO) |
| Time | Latitude | Longitude | Altitude | Speed | Heading |
|---|---|---|---|---|---|
| 2026-05-06 19:20 | 29.52765 | -137.08964 | 34268 ft | 455 kts | 250° |
| 2026-05-06 19:20 | 29.51617 | -137.12318 | 34269 ft | 455 kts | 250° |
| 2026-05-06 19:21 | 29.49307 | -137.19063 | 34265 ft | 455 kts | 250° |
| 2026-05-06 19:21 | 29.47002 | -137.25778 | 34258 ft | 455 kts | 250° |
| 2026-05-06 19:22 | 29.44685 | -137.32518 | 34256 ft | 454 kts | 250° |
| 2026-05-06 19:22 | 29.42361 | -137.39261 | 34257 ft | 454 kts | 250° |
| 2026-05-06 19:23 | 29.40046 | -137.45970 | 34256 ft | 455 kts | 250° |
| 2026-05-06 19:23 | 29.37717 | -137.52702 | 34257 ft | 455 kts | 250° |
| 2026-05-06 19:24 | 29.35396 | -137.59401 | 34258 ft | 454 kts | 250° |
| 2026-05-06 19:24 | 29.33069 | -137.66103 | 34257 ft | 454 kts | 250° |
| 2026-05-06 19:25 | 29.30739 | -137.72804 | 34256 ft | 454 kts | 250° |
| 2026-05-06 19:25 | 29.28400 | -137.79515 | 34259 ft | 454 kts | 250° |
| 2026-05-06 19:26 | 29.26057 | -137.86226 | 34255 ft | 454 kts | 250° |
| 2026-05-06 19:26 | 29.23724 | -137.92897 | 34257 ft | 454 kts | 250° |
| 2026-05-06 19:27 | 29.21383 | -137.99579 | 34256 ft | 454 kts | 250° |
| 2026-05-06 19:27 | 29.19019 | -138.06310 | 34255 ft | 454 kts | 250° |
| 2026-05-06 19:28 | 29.16686 | -138.12946 | 34256 ft | 453 kts | 250° |
| 2026-05-06 19:28 | 29.14337 | -138.19609 | 34255 ft | 453 kts | 250° |
| 2026-05-06 19:29 | 29.11985 | -138.26273 | 34255 ft | 453 kts | 250° |
| 2026-05-06 19:29 | 29.09622 | -138.32951 | 34251 ft | 453 kts | 250° |
| 2026-05-06 19:30 | 29.07255 | -138.39632 | 34247 ft | 454 kts | 250° |
| 2026-05-06 19:30 | 29.04900 | -138.46266 | 34250 ft | 454 kts | 250° |
| 2026-05-06 19:31 | 29.02535 | -138.52914 | 34245 ft | 453 kts | 250° |
| 2026-05-06 19:31 | 28.98972 | -138.62907 | 34247 ft | 452 kts | 250° |
| 2026-05-06 19:32 | 28.96615 | -138.69504 | 34240 ft | 452 kts | 249° |
| 2026-05-06 19:32 | 28.94237 | -138.76147 | 34237 ft | 452 kts | 249° |
| 2026-05-06 19:33 | 28.91863 | -138.82767 | 34235 ft | 452 kts | 249° |
| 2026-05-06 19:33 | 28.89482 | -138.89392 | 34238 ft | 452 kts | 249° |
| 2026-05-06 19:34 | 28.87100 | -138.96010 | 34238 ft | 452 kts | 249° |
| 2026-05-06 19:34 | 28.84717 | -139.02620 | 34236 ft | 452 kts | 249° |
| 2026-05-06 19:35 | 28.82337 | -139.09206 | 34239 ft | 451 kts | 249° |
| 2026-05-06 19:35 | 28.79955 | -139.15787 | 34238 ft | 451 kts | 249° |
| 2026-05-06 19:36 | 28.77554 | -139.22409 | 34238 ft | 450 kts | 249° |
| 2026-05-06 19:36 | 28.75169 | -139.28973 | 34237 ft | 450 kts | 249° |
| 2026-05-06 19:37 | 28.72778 | -139.35544 | 34235 ft | 450 kts | 249° |
| 2026-05-06 19:37 | 28.70784 | -139.41016 | 34236 ft | 450 kts | 249° |
| 2026-05-06 19:38 | 28.67975 | -139.48688 | 34236 ft | 450 kts | 249° |
| 2026-05-06 19:38 | 28.65579 | -139.55215 | 34239 ft | 450 kts | 249° |
| 2026-05-06 19:39 | 28.63169 | -139.61771 | 34238 ft | 450 kts | 249° |
| 2026-05-06 19:39 | 28.60750 | -139.68339 | 34237 ft | 450 kts | 249° |
| 2026-05-06 19:40 | 28.58347 | -139.74850 | 34237 ft | 450 kts | 249° |
| 2026-05-06 19:40 | 28.55928 | -139.81396 | 34236 ft | 449 kts | 249° |
| 2026-05-06 19:41 | 28.53513 | -139.87918 | 34238 ft | 449 kts | 249° |
| 2026-05-06 19:41 | 28.51080 | -139.94476 | 34238 ft | 449 kts | 249° |
| 2026-05-06 19:42 | 28.48662 | -140.00983 | 34237 ft | 449 kts | 249° |
| 2026-05-06 19:42 | 28.46240 | -140.07491 | 34237 ft | 449 kts | 249° |
| 2026-05-06 19:43 | 28.43803 | -140.14023 | 34236 ft | 449 kts | 249° |
| 2026-05-06 19:43 | 28.41368 | -140.20541 | 34233 ft | 449 kts | 249° |
| 2026-05-06 19:44 | 28.38946 | -140.27013 | 34234 ft | 449 kts | 249° |
| 2026-05-06 19:44 | 28.36499 | -140.33540 | 34234 ft | 448 kts | 249° |
| 2026-05-06 19:45 | 28.34065 | -140.40022 | 34227 ft | 447 kts | 249° |
| 2026-05-06 19:45 | 28.31633 | -140.46487 | 34224 ft | 447 kts | 249° |
| 2026-05-06 19:46 | 28.29196 | -140.52954 | 34219 ft | 447 kts | 249° |
| 2026-05-06 19:46 | 28.26761 | -140.59402 | 34217 ft | 446 kts | 249° |
| 2026-05-06 19:47 | 28.24314 | -140.65874 | 34217 ft | 447 kts | 249° |
| 2026-05-06 19:47 | 28.21872 | -140.72321 | 34218 ft | 447 kts | 249° |
| 2026-05-06 19:48 | 28.19416 | -140.78792 | 34217 ft | 447 kts | 249° |
| 2026-05-06 19:48 | 28.16976 | -140.85210 | 34217 ft | 447 kts | 249° |
| 2026-05-06 19:49 | 28.14520 | -140.91660 | 34216 ft | 446 kts | 249° |
| 2026-05-06 19:49 | 28.12070 | -140.98084 | 34216 ft | 445 kts | 249° |
| 2026-05-06 19:50 | 28.09615 | -141.04507 | 34216 ft | 445 kts | 249° |
| 2026-05-06 19:50 | 28.07156 | -141.10933 | 34216 ft | 445 kts | 249° |
| 2026-05-06 19:51 | 28.04700 | -141.17339 | 34217 ft | 445 kts | 249° |
| 2026-05-06 19:51 | 28.02228 | -141.23776 | 34216 ft | 446 kts | 249° |
| 2026-05-06 19:52 | 27.99767 | -141.30173 | 34216 ft | 446 kts | 249° |
| 2026-05-06 19:52 | 27.97284 | -141.36616 | 34216 ft | 446 kts | 249° |
| 2026-05-06 19:53 | 27.94813 | -141.43021 | 34215 ft | 447 kts | 249° |
| 2026-05-06 19:53 | 27.92336 | -141.49428 | 34215 ft | 447 kts | 249° |
| 2026-05-06 19:54 | 27.89842 | -141.55867 | 34217 ft | 446 kts | 249° |
| 2026-05-06 19:54 | 27.87362 | -141.62262 | 34216 ft | 446 kts | 249° |
| 2026-05-06 19:55 | 27.84877 | -141.68658 | 34217 ft | 446 kts | 248° |
| 2026-05-06 19:55 | 27.82397 | -141.75030 | 34218 ft | 446 kts | 248° |
| 2026-05-06 19:56 | 27.79894 | -141.81451 | 34216 ft | 446 kts | 248° |
| 2026-05-06 19:56 | 27.77399 | -141.87842 | 34213 ft | 446 kts | 248° |
| 2026-05-06 19:57 | 27.74896 | -141.94243 | 34210 ft | 447 kts | 248° |
| 2026-05-06 19:57 | 27.72400 | -142.00615 | 34206 ft | 447 kts | 248° |
| 2026-05-06 19:58 | 27.69891 | -142.07010 | 34203 ft | 446 kts | 248° |
| 2026-05-06 19:58 | 27.67383 | -142.13391 | 34201 ft | 446 kts | 248° |
| 2026-05-06 19:59 | 27.64869 | -142.19777 | 34197 ft | 446 kts | 248° |
| 2026-05-06 19:59 | 27.62358 | -142.26146 | 34196 ft | 446 kts | 248° |
| 2026-05-06 20:00 | 27.59828 | -142.32553 | 34194 ft | 446 kts | 249° |
| 2026-05-06 20:00 | 27.57312 | -142.38913 | 34195 ft | 446 kts | 249° |
| 2026-05-06 20:01 | 27.54797 | -142.45259 | 34196 ft | 446 kts | 249° |
| 2026-05-06 20:01 | 27.52272 | -142.51622 | 34195 ft | 446 kts | 248° |
| 2026-05-06 20:02 | 27.49737 | -142.58000 | 34196 ft | 447 kts | 249° |
| 2026-05-06 20:02 | 27.47192 | -142.64392 | 34196 ft | 447 kts | 249° |
| 2026-05-06 20:03 | 27.44661 | -142.70740 | 34197 ft | 447 kts | 248° |
| 2026-05-06 20:03 | 27.42105 | -142.77141 | 34195 ft | 448 kts | 248° |
| 2026-05-06 20:04 | 27.39565 | -142.83489 | 34195 ft | 448 kts | 248° |
| 2026-05-06 20:04 | 27.37000 | -142.89891 | 34194 ft | 448 kts | 248° |
| 2026-05-06 20:05 | 27.34452 | -142.96240 | 34194 ft | 447 kts | 248° |
| 2026-05-06 20:05 | 27.31898 | -143.02593 | 34195 ft | 447 kts | 248° |
| 2026-05-06 20:06 | 27.29341 | -143.08943 | 34194 ft | 447 kts | 248° |
| 2026-05-06 20:06 | 27.26789 | -143.15273 | 34195 ft | 447 kts | 248° |
| 2026-05-06 20:07 | 27.24217 | -143.21640 | 34195 ft | 447 kts | 248° |
| 2026-05-06 20:07 | 27.21646 | -143.27995 | 34193 ft | 447 kts | 248° |
| 2026-05-06 20:08 | 27.19084 | -143.34319 | 34194 ft | 447 kts | 248° |
| 2026-05-06 20:08 | 27.16512 | -143.40655 | 34195 ft | 446 kts | 248° |
| 2026-05-06 20:09 | 27.13953 | -143.46951 | 34195 ft | 446 kts | 248° |
| 2026-05-06 20:09 | 27.11378 | -143.53278 | 34187 ft | 445 kts | 248° |
| 2026-05-06 20:10 | 27.08812 | -143.59572 | 34194 ft | 445 kts | 248° |
| 2026-05-06 20:10 | 27.06229 | -143.65897 | 34194 ft | 445 kts | 248° |
| 2026-05-06 20:11 | 27.03663 | -143.72170 | 34196 ft | 444 kts | 248° |
| 2026-05-06 20:11 | 27.01093 | -143.78445 | 34194 ft | 444 kts | 248° |
| 2026-05-06 20:12 | 26.98523 | -143.84709 | 34196 ft | 445 kts | 248° |
| 2026-05-06 20:12 | 26.95937 | -143.91003 | 34196 ft | 445 kts | 248° |
| 2026-05-06 20:13 | 26.93345 | -143.97301 | 34194 ft | 443 kts | 248° |
| 2026-05-06 20:13 | 26.90780 | -144.03526 | 34196 ft | 443 kts | 248° |
| 2026-05-06 20:14 | 26.88193 | -144.09792 | 34188 ft | 443 kts | 248° |
| 2026-05-06 20:14 | 26.85619 | -144.16020 | 34191 ft | 443 kts | 248° |
| 2026-05-06 20:15 | 26.83037 | -144.22257 | 34188 ft | 444 kts | 248° |
| 2026-05-06 20:15 | 26.80431 | -144.28543 | 34179 ft | 444 kts | 248° |
| 2026-05-06 20:16 | 26.77833 | -144.34799 | 34171 ft | 444 kts | 248° |
| 2026-05-06 20:16 | 26.75236 | -144.41043 | 34172 ft | 443 kts | 248° |
| 2026-05-06 20:17 | 26.72649 | -144.47253 | 34174 ft | 444 kts | 248° |
| 2026-05-06 20:17 | 26.70048 | -144.53488 | 34167 ft | 444 kts | 248° |
| 2026-05-06 20:18 | 26.67435 | -144.59743 | 34166 ft | 444 kts | 248° |
| 2026-05-06 20:18 | 26.64820 | -144.65994 | 34163 ft | 444 kts | 248° |
| 2026-05-06 20:19 | 26.62210 | -144.72223 | 34159 ft | 444 kts | 248° |
| 2026-05-06 20:19 | 26.59603 | -144.78435 | 34152 ft | 444 kts | 248° |
| 2026-05-06 20:20 | 26.56980 | -144.84677 | 34158 ft | 445 kts | 248° |
| 2026-05-06 20:20 | 26.54351 | -144.90926 | 34158 ft | 445 kts | 248° |
| 2026-05-06 20:21 | 26.51730 | -144.97144 | 34155 ft | 445 kts | 248° |
| 2026-05-06 20:21 | 26.49085 | -145.03409 | 34159 ft | 444 kts | 248° |
| 2026-05-06 20:22 | 26.46466 | -145.09604 | 34153 ft | 444 kts | 248° |
| 2026-05-06 20:22 | 26.43831 | -145.15828 | 34151 ft | 444 kts | 248° |
| 2026-05-06 20:23 | 26.41193 | -145.22049 | 34149 ft | 444 kts | 248° |
| 2026-05-06 20:23 | 26.38566 | -145.28238 | 34149 ft | 444 kts | 248° |
| 2026-05-06 20:24 | 26.35923 | -145.34453 | 34147 ft | 444 kts | 248° |
| 2026-05-06 20:24 | 26.33290 | -145.40634 | 34139 ft | 444 kts | 248° |
| 2026-05-06 20:25 | 26.30647 | -145.46831 | 34146 ft | 444 kts | 248° |
| 2026-05-06 20:25 | 26.27988 | -145.53059 | 34140 ft | 445 kts | 248° |
| 2026-05-06 20:26 | 26.25348 | -145.59232 | 34142 ft | 445 kts | 248° |
| 2026-05-06 20:26 | 26.22687 | -145.65443 | 34139 ft | 444 kts | 247° |
| 2026-05-06 20:27 | 26.20038 | -145.71620 | 34144 ft | 444 kts | 247° |
| 2026-05-06 20:27 | 26.17367 | -145.77838 | 34146 ft | 444 kts | 247° |
| 2026-05-06 20:28 | 26.14704 | -145.84027 | 34140 ft | 445 kts | 247° |
| 2026-05-06 20:28 | 26.12040 | -145.90213 | 34136 ft | 445 kts | 247° |
| 2026-05-06 20:29 | 26.09371 | -145.96400 | 34136 ft | 445 kts | 247° |
| 2026-05-06 20:29 | 26.06687 | -146.02612 | 34135 ft | 445 kts | 247° |
| 2026-05-06 20:30 | 26.02685 | -146.11859 | 34134 ft | 445 kts | 247° |
| 2026-05-06 20:31 | 25.99986 | -146.18086 | 34134 ft | 446 kts | 247° |
| 2026-05-06 20:31 | 25.97315 | -146.24249 | 34134 ft | 447 kts | 247° |
| 2026-05-06 20:32 | 25.94621 | -146.30458 | 34134 ft | 446 kts | 247° |
| 2026-05-06 20:32 | 25.91933 | -146.36644 | 34134 ft | 446 kts | 247° |
| 2026-05-06 20:33 | 25.89237 | -146.42837 | 34134 ft | 446 kts | 247° |
| 2026-05-06 20:33 | 25.86547 | -146.49011 | 34134 ft | 446 kts | 247° |
| 2026-05-06 20:34 | 25.83833 | -146.55229 | 34134 ft | 447 kts | 247° |
| 2026-05-06 20:34 | 25.81128 | -146.61420 | 34133 ft | 448 kts | 247° |
| 2026-05-06 20:35 | 25.78410 | -146.67630 | 34135 ft | 449 kts | 247° |
| 2026-05-06 20:35 | 25.75680 | -146.73859 | 34137 ft | 449 kts | 246° |
| 2026-05-06 20:36 | 25.72957 | -146.80063 | 34134 ft | 449 kts | 247° |
| 2026-05-06 20:36 | 25.70225 | -146.86278 | 34134 ft | 449 kts | 247° |
| 2026-05-06 20:37 | 25.67502 | -146.92465 | 34133 ft | 449 kts | 247° |
| 2026-05-06 20:37 | 25.64763 | -146.98680 | 34133 ft | 449 kts | 247° |
| 2026-05-06 20:38 | 25.62017 | -147.04900 | 34131 ft | 450 kts | 247° |
| 2026-05-06 20:38 | 25.59290 | -147.11069 | 34131 ft | 450 kts | 247° |
| 2026-05-06 20:39 | 25.56540 | -147.17284 | 34131 ft | 450 kts | 247° |
| 2026-05-06 20:39 | 25.53780 | -147.23511 | 34132 ft | 450 kts | 247° |
| 2026-05-06 20:40 | 25.51028 | -147.29712 | 34128 ft | 450 kts | 247° |
| 2026-05-06 20:40 | 25.48266 | -147.35925 | 34125 ft | 450 kts | 247° |
| 2026-05-06 20:41 | 25.45523 | -147.42087 | 34130 ft | 449 kts | 247° |
| 2026-05-06 20:41 | 25.42773 | -147.48257 | 34132 ft | 449 kts | 247° |
| 2026-05-06 20:42 | 25.40009 | -147.54450 | 34130 ft | 449 kts | 247° |
| 2026-05-06 20:42 | 25.37242 | -147.60641 | 34127 ft | 449 kts | 247° |
| 2026-05-06 20:43 | 25.34475 | -147.66823 | 34130 ft | 449 kts | 246° |
| 2026-05-06 20:43 | 25.31711 | -147.72990 | 34131 ft | 449 kts | 246° |
| 2026-05-06 20:44 | 25.28952 | -147.79140 | 34129 ft | 450 kts | 246° |
| 2026-05-06 20:44 | 25.26171 | -147.85326 | 34131 ft | 450 kts | 246° |
| 2026-05-06 20:45 | 25.23381 | -147.91525 | 34129 ft | 450 kts | 246° |
| 2026-05-06 20:45 | 25.20610 | -147.97675 | 34126 ft | 449 kts | 246° |
| 2026-05-06 20:46 | 25.17831 | -148.03832 | 34125 ft | 449 kts | 246° |
| 2026-05-06 20:46 | 25.15058 | -148.09969 | 34127 ft | 449 kts | 246° |
| 2026-05-06 20:47 | 25.12269 | -148.16132 | 34135 ft | 449 kts | 246° |
| 2026-05-06 20:47 | 25.09475 | -148.22298 | 34124 ft | 449 kts | 246° |
| 2026-05-06 20:48 | 25.06693 | -148.28429 | 34117 ft | 449 kts | 246° |
| 2026-05-06 20:48 | 25.03898 | -148.34578 | 34121 ft | 449 kts | 246° |
| 2026-05-06 20:49 | 25.01116 | -148.40694 | 34118 ft | 449 kts | 246° |
| 2026-05-06 20:49 | 24.98311 | -148.46851 | 34117 ft | 450 kts | 246° |
| 2026-05-06 20:50 | 24.95494 | -148.53024 | 34111 ft | 450 kts | 246° |
| 2026-05-06 20:50 | 24.92697 | -148.59148 | 34106 ft | 449 kts | 246° |
| 2026-05-06 20:51 | 24.89888 | -148.65288 | 34107 ft | 449 kts | 246° |
| 2026-05-06 20:51 | 24.87090 | -148.71396 | 34105 ft | 449 kts | 246° |
| 2026-05-06 20:52 | 24.84283 | -148.77516 | 34101 ft | 449 kts | 246° |
| 2026-05-06 20:52 | 24.81481 | -148.83617 | 34094 ft | 449 kts | 246° |
| 2026-05-06 20:53 | 24.78661 | -148.89749 | 34094 ft | 449 kts | 246° |
| 2026-05-06 20:53 | 24.75836 | -148.95883 | 34093 ft | 450 kts | 246° |
| 2026-05-06 20:54 | 24.73013 | -149.02006 | 34093 ft | 449 kts | 246° |
| 2026-05-06 20:54 | 24.70196 | -149.08107 | 34092 ft | 449 kts | 246° |
| 2026-05-06 20:55 | 24.67384 | -149.14189 | 34091 ft | 449 kts | 246° |
| 2026-05-06 20:55 | 24.64549 | -149.20312 | 34086 ft | 448 kts | 246° |
| 2026-05-06 20:56 | 24.61745 | -149.26361 | 34091 ft | 448 kts | 246° |
| 2026-05-06 20:56 | 24.58915 | -149.32457 | 34089 ft | 448 kts | 246° |
| 2026-05-06 20:57 | 24.56098 | -149.38519 | 34088 ft | 448 kts | 246° |
| 2026-05-06 20:57 | 24.53257 | -149.44623 | 34089 ft | 448 kts | 246° |
| 2026-05-06 20:58 | 24.50421 | -149.50707 | 34087 ft | 448 kts | 246° |
| 2026-05-06 20:58 | 24.47592 | -149.56770 | 34090 ft | 448 kts | 246° |
| 2026-05-06 20:59 | 24.44746 | -149.62860 | 34085 ft | 448 kts | 246° |
| 2026-05-06 20:59 | 24.41928 | -149.68883 | 34088 ft | 447 kts | 246° |
| 2026-05-06 21:00 | 24.39079 | -149.74965 | 34088 ft | 447 kts | 246° |
| 2026-05-06 21:00 | 24.36253 | -149.80989 | 34087 ft | 447 kts | 245° |
| 2026-05-06 21:01 | 24.33394 | -149.87076 | 34087 ft | 447 kts | 245° |
| 2026-05-06 21:01 | 24.30560 | -149.93102 | 34083 ft | 447 kts | 245° |
| 2026-05-06 21:02 | 24.27729 | -149.99112 | 34087 ft | 447 kts | 245° |
| 2026-05-06 21:02 | 24.24869 | -150.05177 | 34100 ft | 447 kts | 245° |
| 2026-05-06 21:03 | 24.22029 | -150.11192 | 34107 ft | 446 kts | 245° |
| 2026-05-06 21:03 | 24.19184 | -150.17209 | 34104 ft | 446 kts | 245° |
| 2026-05-06 21:04 | 24.16340 | -150.23218 | 34106 ft | 445 kts | 245° |
| 2026-05-06 21:04 | 24.13494 | -150.29221 | 34103 ft | 445 kts | 245° |
| 2026-05-06 21:05 | 24.10639 | -150.35236 | 34107 ft | 444 kts | 245° |
| 2026-05-06 21:05 | 24.07809 | -150.41193 | 34103 ft | 444 kts | 245° |
| 2026-05-06 21:06 | 24.04963 | -150.47174 | 34102 ft | 444 kts | 245° |
| 2026-05-06 21:06 | 24.02103 | -150.53178 | 34099 ft | 444 kts | 245° |
| 2026-05-06 21:07 | 23.99248 | -150.59161 | 34098 ft | 445 kts | 245° |
| 2026-05-06 21:07 | 23.96394 | -150.65137 | 34100 ft | 445 kts | 245° |
| 2026-05-06 21:08 | 23.93528 | -150.71130 | 34100 ft | 445 kts | 245° |
| 2026-05-06 21:08 | 23.90674 | -150.77090 | 34097 ft | 446 kts | 245° |
| 2026-05-06 21:09 | 23.87790 | -150.83105 | 34087 ft | 447 kts | 245° |
| 2026-05-06 21:09 | 23.84916 | -150.89092 | 34091 ft | 447 kts | 245° |
| 2026-05-06 21:10 | 23.82023 | -150.95111 | 34095 ft | 447 kts | 245° |
| 2026-05-06 21:10 | 23.79148 | -151.01083 | 34094 ft | 446 kts | 245° |
| 2026-05-06 21:11 | 23.76269 | -151.07057 | 34092 ft | 445 kts | 245° |
| 2026-05-06 21:11 | 23.73394 | -151.13017 | 34092 ft | 445 kts | 245° |
| 2026-05-06 21:12 | 23.70511 | -151.18983 | 34093 ft | 445 kts | 245° |
| 2026-05-06 21:12 | 23.67615 | -151.24971 | 34088 ft | 446 kts | 245° |
| 2026-05-06 21:13 | 23.64740 | -151.30908 | 34082 ft | 446 kts | 245° |
| 2026-05-06 21:13 | 23.61850 | -151.36868 | 34076 ft | 446 kts | 245° |
| 2026-05-06 21:14 | 23.58957 | -151.42824 | 34072 ft | 446 kts | 245° |
| 2026-05-06 21:14 | 23.56043 | -151.48819 | 34071 ft | 446 kts | 245° |
| 2026-05-06 21:15 | 23.53142 | -151.54779 | 34071 ft | 446 kts | 245° |
| 2026-05-06 21:15 | 23.50254 | -151.60707 | 34072 ft | 446 kts | 245° |
| 2026-05-06 21:16 | 23.47352 | -151.66653 | 34072 ft | 446 kts | 245° |
| 2026-05-06 21:16 | 23.44443 | -151.72607 | 34073 ft | 446 kts | 244° |
| 2026-05-06 21:17 | 23.41514 | -151.78597 | 34074 ft | 446 kts | 244° |
| 2026-05-06 21:17 | 23.38603 | -151.84540 | 34071 ft | 447 kts | 244° |
| 2026-05-06 21:18 | 23.35689 | -151.90483 | 34069 ft | 447 kts | 244° |
| 2026-05-06 21:18 | 23.32772 | -151.96423 | 34070 ft | 447 kts | 244° |
| 2026-05-06 21:19 | 23.29845 | -152.02377 | 34071 ft | 448 kts | 244° |
| 2026-05-06 21:19 | 23.26905 | -152.08353 | 34072 ft | 447 kts | 244° |
| 2026-05-06 21:20 | 23.23982 | -152.14284 | 34070 ft | 447 kts | 245° |
| 2026-05-06 21:20 | 23.21051 | -152.20224 | 34073 ft | 447 kts | 244° |
| 2026-05-06 21:21 | 23.18116 | -152.26164 | 34073 ft | 446 kts | 244° |
| 2026-05-06 21:21 | 23.15184 | -152.32092 | 34069 ft | 446 kts | 244° |
| 2026-05-06 21:22 | 23.12255 | -152.38008 | 34070 ft | 446 kts | 244° |
| 2026-05-06 21:22 | 23.09308 | -152.43951 | 34072 ft | 446 kts | 244° |
| 2026-05-06 21:23 | 23.06372 | -152.49867 | 34070 ft | 446 kts | 244° |
| 2026-05-06 21:23 | 23.03436 | -152.55774 | 34073 ft | 446 kts | 244° |
| 2026-05-06 21:24 | 23.00473 | -152.61705 | 34073 ft | 446 kts | 244° |
| 2026-05-06 21:24 | 22.97506 | -152.67619 | 34072 ft | 446 kts | 244° |
| 2026-05-06 21:25 | 22.94552 | -152.73500 | 34071 ft | 446 kts | 244° |
| 2026-05-06 21:25 | 22.91601 | -152.79370 | 34071 ft | 445 kts | 244° |
| 2026-05-06 21:26 | 22.88629 | -152.85272 | 34071 ft | 445 kts | 244° |
| 2026-05-06 21:26 | 22.85664 | -152.91156 | 34071 ft | 445 kts | 244° |
| 2026-05-06 21:27 | 22.82711 | -152.97008 | 34073 ft | 446 kts | 244° |
| 2026-05-06 21:27 | 22.79725 | -153.02919 | 34070 ft | 446 kts | 244° |
| 2026-05-06 21:28 | 22.76760 | -153.08783 | 34070 ft | 446 kts | 244° |
| 2026-05-06 21:28 | 22.73774 | -153.14679 | 34071 ft | 446 kts | 244° |
| 2026-05-06 21:29 | 22.70809 | -153.20526 | 34073 ft | 445 kts | 244° |
| 2026-05-06 21:29 | 22.67828 | -153.26401 | 34071 ft | 445 kts | 244° |
| 2026-05-06 21:30 | 22.64851 | -153.32259 | 34072 ft | 445 kts | 244° |
| 2026-05-06 21:30 | 22.61882 | -153.38097 | 34072 ft | 445 kts | 243° |
| 2026-05-06 21:31 | 22.58901 | -153.43948 | 34073 ft | 445 kts | 244° |
| 2026-05-06 21:31 | 22.55906 | -153.49821 | 34072 ft | 445 kts | 244° |
| 2026-05-06 21:32 | 22.52933 | -153.55646 | 34070 ft | 445 kts | 243° |
| 2026-05-06 21:32 | 22.48444 | -153.64427 | 34071 ft | 445 kts | 244° |
| 2026-05-06 21:33 | 22.45445 | -153.70287 | 34071 ft | 446 kts | 243° |
| 2026-05-06 21:33 | 22.42447 | -153.76135 | 34072 ft | 445 kts | 243° |
| 2026-05-06 21:34 | 22.39456 | -153.81964 | 34072 ft | 445 kts | 243° |
| 2026-05-06 21:34 | 22.36161 | -153.87620 | 34073 ft | 448 kts | 234° |
| 2026-05-06 21:35 | 22.31684 | -153.92372 | 34070 ft | 452 kts | 224° |
| 2026-05-06 21:35 | 22.26911 | -153.96774 | 34071 ft | 452 kts | 223° |
| 2026-05-06 21:36 | 22.22135 | -154.01181 | 34071 ft | 452 kts | 223° |
| 2026-05-06 21:36 | 22.17369 | -154.05576 | 34072 ft | 451 kts | 224° |
| 2026-05-06 21:37 | 22.12592 | -154.09978 | 34071 ft | 451 kts | 223° |
| 2026-05-06 21:37 | 22.07824 | -154.14366 | 34072 ft | 451 kts | 223° |
| 2026-05-06 21:38 | 22.03045 | -154.18762 | 34072 ft | 452 kts | 223° |
| 2026-05-06 21:38 | 21.98258 | -154.23161 | 34073 ft | 452 kts | 223° |
| 2026-05-06 21:39 | 21.93479 | -154.27550 | 34072 ft | 452 kts | 223° |
| 2026-05-06 21:39 | 21.88708 | -154.31926 | 34069 ft | 452 kts | 223° |
| 2026-05-06 21:40 | 21.83910 | -154.36325 | 34069 ft | 452 kts | 223° |
| 2026-05-06 21:40 | 21.79133 | -154.40698 | 34069 ft | 452 kts | 224° |
| 2026-05-06 21:41 | 21.74356 | -154.45070 | 34070 ft | 451 kts | 224° |
| 2026-05-06 21:41 | 21.69576 | -154.49440 | 34073 ft | 450 kts | 224° |
| 2026-05-06 21:42 | 21.64811 | -154.53792 | 34076 ft | 450 kts | 224° |
| 2026-05-06 21:42 | 21.60036 | -154.58150 | 34073 ft | 450 kts | 224° |
| 2026-05-06 21:43 | 21.55277 | -154.62489 | 34074 ft | 449 kts | 224° |
| 2026-05-06 21:43 | 21.50523 | -154.66820 | 34068 ft | 449 kts | 223° |
| 2026-05-06 21:44 | 21.45755 | -154.71161 | 34073 ft | 449 kts | 223° |
| 2026-05-06 21:44 | 21.41000 | -154.75485 | 34069 ft | 449 kts | 224° |
| 2026-05-06 21:45 | 21.36235 | -154.79816 | 34073 ft | 448 kts | 224° |
| 2026-05-06 21:45 | 21.31467 | -154.84143 | 34077 ft | 448 kts | 224° |
| 2026-05-06 21:46 | 21.27222 | -154.87993 | 34071 ft | 448 kts | 224° |
| 2026-05-06 21:46 | 21.22456 | -154.92313 | 34073 ft | 447 kts | 224° |
| 2026-05-06 21:47 | 21.17713 | -154.96609 | 33697 ft | 451 kts | 224° |
| 2026-05-06 21:47 | 21.15308 | -154.98787 | 33144 ft | 450 kts | 224° |
| 2026-05-06 21:47 | 21.12966 | -155.00903 | 32640 ft | 443 kts | 224° |
| 2026-05-06 21:48 | 21.10622 | -155.03020 | 32047 ft | 438 kts | 224° |
| 2026-05-06 21:48 | 21.08299 | -155.05119 | 31478 ft | 434 kts | 223° |
| 2026-05-06 21:48 | 21.06003 | -155.07193 | 30904 ft | 430 kts | 223° |
| 2026-05-06 21:48 | 21.03750 | -155.09227 | 30347 ft | 426 kts | 223° |
| 2026-05-06 21:49 | 21.01468 | -155.11287 | 29770 ft | 423 kts | 223° |
| 2026-05-06 21:49 | 20.99220 | -155.13318 | 29211 ft | 426 kts | 222° |
| 2026-05-06 21:49 | 20.96978 | -155.15341 | 28646 ft | 429 kts | 222° |
| 2026-05-06 21:49 | 20.94688 | -155.17406 | 28085 ft | 433 kts | 222° |
| 2026-05-06 21:50 | 20.92375 | -155.19492 | 27502 ft | 435 kts | 221° |
| 2026-05-06 21:50 | 20.90065 | -155.21574 | 26927 ft | 437 kts | 221° |
| 2026-05-06 21:50 | 20.87738 | -155.23669 | 26346 ft | 438 kts | 221° |
| 2026-05-06 21:50 | 20.85387 | -155.25786 | 25757 ft | 440 kts | 221° |
| 2026-05-06 21:51 | 20.83048 | -155.27892 | 25170 ft | 441 kts | 221° |
| 2026-05-06 21:51 | 20.80724 | -155.29982 | 24593 ft | 443 kts | 221° |
| 2026-05-06 21:51 | 20.78338 | -155.32127 | 23995 ft | 444 kts | 221° |
| 2026-05-06 21:51 | 20.75987 | -155.34241 | 23408 ft | 445 kts | 221° |
| 2026-05-06 21:52 | 20.73609 | -155.36377 | 22818 ft | 447 kts | 221° |
| 2026-05-06 21:52 | 20.71239 | -155.38506 | 22231 ft | 448 kts | 221° |
| 2026-05-06 21:52 | 20.68842 | -155.40657 | 21629 ft | 449 kts | 221° |
| 2026-05-06 21:52 | 20.66459 | -155.42796 | 21029 ft | 450 kts | 221° |
| 2026-05-06 21:53 | 20.64055 | -155.44952 | 20430 ft | 450 kts | 221° |
| 2026-05-06 21:53 | 20.61670 | -155.47090 | 19834 ft | 451 kts | 221° |
| 2026-05-06 21:53 | 20.59261 | -155.49251 | 19235 ft | 450 kts | 221° |
| 2026-05-06 21:53 | 20.56899 | -155.51364 | 18637 ft | 436 kts | 221° |
| 2026-05-06 21:54 | 20.54607 | -155.53415 | 18035 ft | 424 kts | 221° |
| 2026-05-06 21:54 | 20.52397 | -155.55394 | 17483 ft | 412 kts | 221° |
| 2026-05-06 21:54 | 20.50238 | -155.57324 | 16949 ft | 401 kts | 221° |
| 2026-05-06 21:54 | 20.48126 | -155.59212 | 16425 ft | 390 kts | 221° |
| 2026-05-06 21:55 | 20.46075 | -155.61044 | 15915 ft | 380 kts | 221° |
| 2026-05-06 21:55 | 20.44070 | -155.62837 | 15416 ft | 371 kts | 221° |
| 2026-05-06 21:55 | 20.42131 | -155.64569 | 14933 ft | 363 kts | 221° |
| 2026-05-06 21:55 | 20.40215 | -155.66280 | 14459 ft | 355 kts | 220° |
| 2026-05-06 21:56 | 20.38349 | -155.67947 | 13995 ft | 347 kts | 220° |
| 2026-05-06 21:56 | 20.36499 | -155.69597 | 13533 ft | 340 kts | 220° |
| 2026-05-06 21:56 | 20.34707 | -155.71197 | 13084 ft | 334 kts | 220° |
| 2026-05-06 21:56 | 20.32955 | -155.72760 | 12651 ft | 331 kts | 220° |
| 2026-05-06 21:57 | 20.31174 | -155.74348 | 12208 ft | 332 kts | 220° |
| 2026-05-06 21:57 | 20.29425 | -155.75909 | 11769 ft | 329 kts | 220° |
| 2026-05-06 21:57 | 20.27656 | -155.77486 | 11328 ft | 327 kts | 220° |
| 2026-05-06 21:57 | 20.25933 | -155.79021 | 10900 ft | 325 kts | 220° |
| 2026-05-06 21:58 | 20.24192 | -155.80572 | 10468 ft | 323 kts | 220° |
| 2026-05-06 21:58 | 20.22490 | -155.82088 | 10045 ft | 321 kts | 220° |
| 2026-05-06 21:58 | 20.20778 | -155.83614 | 9622 ft | 319 kts | 219° |
| 2026-05-06 21:58 | 20.19082 | -155.85136 | 9202 ft | 314 kts | 220° |
| 2026-05-06 21:59 | 20.17439 | -155.86635 | 8794 ft | 307 kts | 220° |
| 2026-05-06 21:59 | 20.15846 | -155.88086 | 8397 ft | 301 kts | 220° |
| 2026-05-06 21:59 | 20.14266 | -155.89523 | 8002 ft | 295 kts | 220° |
| 2026-05-06 21:59 | 20.12717 | -155.90933 | 7610 ft | 290 kts | 220° |
| 2026-05-06 22:00 | 20.11195 | -155.92317 | 7229 ft | 285 kts | 220° |
| 2026-05-06 22:00 | 20.09693 | -155.93683 | 6852 ft | 281 kts | 220° |
| 2026-05-06 22:00 | 20.08211 | -155.95030 | 6477 ft | 277 kts | 220° |
| 2026-05-06 22:00 | 20.06760 | -155.96350 | 6110 ft | 273 kts | 220° |
| 2026-05-06 22:01 | 20.05329 | -155.97650 | 5751 ft | 270 kts | 220° |
| 2026-05-06 22:01 | 20.03918 | -155.98932 | 5395 ft | 266 kts | 220° |
| 2026-05-06 22:01 | 20.02510 | -156.00211 | 5037 ft | 264 kts | 220° |
| 2026-05-06 22:01 | 20.01103 | -156.01463 | 4678 ft | 262 kts | 216° |
| 2026-05-06 22:02 | 19.99436 | -156.02162 | 4298 ft | 259 kts | 185° |
| 2026-05-06 22:02 | 19.97641 | -156.02300 | 3931 ft | 256 kts | 188° |
| 2026-05-06 22:02 | 19.95877 | -156.02571 | 3567 ft | 254 kts | 184° |
| 2026-05-06 22:02 | 19.94111 | -156.02747 | 3202 ft | 252 kts | 185° |
| 2026-05-06 22:03 | 19.92394 | -156.02914 | 3020 ft | 242 kts | 184° |
| 2026-05-06 22:03 | 19.90763 | -156.03065 | 2939 ft | 234 kts | 185° |
| 2026-05-06 22:03 | 19.89123 | -156.03214 | 2648 ft | 232 kts | 184° |
| 2026-05-06 22:03 | 19.87549 | -156.03354 | 2357 ft | 220 kts | 184° |
| 2026-05-06 22:04 | 19.86069 | -156.03485 | 2093 ft | 208 kts | 184° |
| 2026-05-06 22:04 | 19.84665 | -156.03610 | 1833 ft | 198 kts | 184° |
| 2026-05-06 22:04 | 19.83304 | -156.03731 | 1578 ft | 189 kts | 185° |
| 2026-05-06 22:04 | 19.82051 | -156.03842 | 1331 ft | 168 kts | 185° |
| 2026-05-06 22:05 | 19.80971 | -156.03935 | 1176 ft | 149 kts | 186° |
| 2026-05-06 22:05 | 19.79946 | -156.04024 | 1001 ft | 150 kts | 185° |
| 2026-05-06 22:05 | 19.78919 | -156.04102 | 815 ft | 147 kts | 185° |
| 2026-05-06 22:05 | 19.77920 | -156.04190 | 605 ft | 144 kts | 188° |
| 2026-05-06 22:06 | 19.76934 | -156.04282 | 410 ft | 139 kts | 187° |
| 2026-05-06 22:06 | 19.75951 | -156.04381 | 222 ft | 140 kts | 187° |
| 2026-05-06 22:06 | 19.74991 | -156.04469 | 85 ft | 133 kts | 188° |
| 2026-05-06 22:06 | 19.74176 | -156.04541 | 65 ft | 95 kts | 185° |
| 2026-05-06 22:07 | 19.73664 | -156.04585 | 60 ft | 59 kts | 185° |
| 2026-05-06 22:07 | 19.73366 | -156.04613 | 60 ft | 33 kts | 185° |
| 2026-05-06 22:07 | 19.73176 | -156.04629 | 59 ft | 26 kts | 185° |
| 2026-05-06 22:07 | 19.72995 | -156.04646 | 59 ft | 24 kts | 183° |
| 2026-05-06 22:08 | 19.72834 | -156.04628 | 60 ft | 21 kts | 167° |
| 2026-05-06 22:08 | 19.72733 | -156.04588 | 61 ft | 10 kts | 157° |
| 2026-05-06 22:08 | 19.72670 | -156.04552 | 63 ft | 10 kts | 127° |
| 2026-05-06 22:08 | 19.72654 | -156.04506 | 64 ft | 6 kts | 93° |
| 2026-05-06 22:09 | 19.72654 | -156.04495 | 65 ft | 1 kts | 94° |
| 2026-05-06 22:09 | 19.72648 | -156.04428 | 67 ft | 12 kts | 95° |
| 2026-05-06 22:09 | 19.72651 | -156.04367 | 70 ft | 8 kts | 61° |
| 2026-05-06 22:09 | 19.72665 | -156.04311 | 72 ft | 6 kts | 94° |
| 2026-05-06 22:10 | 19.72663 | -156.04274 | 73 ft | 2 kts | 92° |
| 2026-05-06 22:10 | 19.72661 | -156.04266 | 74 ft | 2 kts | 117° |
| 2026-05-06 22:10 | 19.72652 | -156.04262 | 74 ft | 1 kts | 186° |
| 2026-05-06 22:10 | 19.72639 | -156.04263 | 74 ft | 1 kts | 185° |
| 2026-05-06 22:11 | 19.72636 | -156.04265 | 74 ft | 0 kts | 185° |